createdAt,value
2022-08-01T00:00:37.515Z,3.83
2022-08-01T00:03:05.110Z,3.50
2022-08-01T00:05:32.426Z,4.28
2022-08-01T00:07:59.830Z,3.15
2022-08-01T00:10:26.810Z,3.17
2022-08-01T00:12:53.790Z,3.03
2022-08-01T00:15:20.688Z,3.33
2022-08-01T00:17:47.953Z,2.80
2022-08-01T00:20:15.860Z,3.30
2022-08-01T00:22:42.929Z,2.17
2022-08-01T00:25:10.483Z,3.95
2022-08-01T00:27:37.553Z,3.10
2022-08-01T00:30:11.523Z,2.85
2022-08-01T00:32:42.119Z,3.35
2022-08-01T00:35:09.145Z,3.67
2022-08-01T00:37:36.059Z,4.60
2022-08-01T00:40:03.267Z,3.80
2022-08-01T00:42:30.232Z,3.35
2022-08-01T00:44:57.152Z,2.90
2022-08-01T00:47:24.086Z,3.90
2022-08-01T00:49:51.282Z,3.42
2022-08-01T00:52:21.196Z,3.90
2022-08-01T00:54:48.940Z,3.45
2022-08-01T00:57:16.012Z,3.78
2022-08-01T01:00:03.668Z,3.72
2022-08-01T01:02:30.659Z,3.45
2022-08-01T01:04:58.558Z,3.80
2022-08-01T01:07:49.807Z,3.20
2022-08-01T01:10:21.033Z,4.30
2022-08-01T01:13:16.854Z,4.13
2022-08-01T01:15:54.096Z,4.80
2022-08-01T01:18:28.356Z,4.22
2022-08-01T01:21:46.650Z,5.78
2022-08-01T01:24:38.701Z,5.13
2022-08-01T01:27:29.858Z,4.25
2022-08-01T01:30:00.964Z,5.30
2022-08-01T01:32:34.720Z,5.22
2022-08-01T01:35:14.939Z,4.55
2022-08-01T01:37:44.174Z,4.13
2022-08-01T01:40:13.384Z,3.08
2022-08-01T01:42:53.187Z,4.38
2022-08-01T01:45:20.970Z,3.90
2022-08-01T01:47:48.690Z,3.78
2022-08-01T01:50:16.353Z,3.67
2022-08-01T01:52:44.374Z,3.53
2022-08-01T01:55:12.556Z,4.18
2022-08-01T01:57:42.666Z,4.85
2022-08-01T02:00:12.161Z,4.03
2022-08-01T02:02:40.236Z,5.05
2022-08-01T02:05:11.874Z,4.32
2022-08-01T02:07:40.442Z,4.68
2022-08-01T02:10:09.848Z,3.95
2022-08-01T02:12:40.061Z,3.63
2022-08-01T02:15:08.360Z,4.38
2022-08-01T02:17:40.878Z,3.22
2022-08-01T02:20:08.302Z,3.58
2022-08-01T02:22:54.616Z,3.63
2022-08-01T02:25:24.923Z,3.28
2022-08-01T02:28:07.357Z,3.17
2022-08-01T02:33:26.273Z,3.10
2022-08-01T02:36:30.220Z,2.88
2022-08-01T02:38:46.928Z,4.25
2022-08-01T02:41:20.930Z,2.83
2022-08-01T02:43:53.317Z,2.83
2022-08-01T02:46:55.524Z,2.83
2022-08-01T02:49:24.199Z,2.50
2022-08-01T02:51:53.999Z,2.72
2022-08-01T02:54:23.110Z,3.25
2022-08-01T02:56:52.438Z,3.17
2022-08-01T02:59:26.659Z,3.15
2022-08-01T03:01:56.247Z,2.47
2022-08-01T03:04:25.353Z,2.50
2022-08-01T03:06:55.680Z,2.10
2022-08-01T03:09:24.106Z,1.88
2022-08-01T03:11:52.254Z,2.30
2022-08-01T03:14:23.001Z,2.75
2022-08-01T03:16:51.101Z,2.60
2022-08-01T03:19:20.503Z,1.88
2022-08-01T03:21:49.322Z,2.83
2022-08-01T03:24:17.510Z,2.00
2022-08-01T03:26:45.960Z,1.48
2022-08-01T03:29:20.905Z,1.13
2022-08-01T03:31:49.052Z,1.17
2022-08-01T03:34:16.781Z,0.93
2022-08-01T03:36:52.346Z,1.00
2022-08-01T03:39:23.678Z,0.70
2022-08-01T03:41:56.950Z,0.50
2022-08-01T03:44:27.467Z,0.60
2022-08-01T03:47:11.657Z,0.73
2022-08-01T03:49:44.208Z,0.60
2022-08-01T03:52:13.581Z,0.70
2022-08-01T03:54:47.574Z,0.80
2022-08-01T03:57:34.922Z,0.70
2022-08-01T04:00:07.783Z,0.70
2022-08-01T04:02:39.842Z,0.73
2022-08-01T04:05:08.213Z,1.00
2022-08-01T04:07:40.391Z,0.80
2022-08-01T04:12:35.563Z,0.50
2022-08-01T04:15:03.126Z,0.90
2022-08-01T04:17:30.573Z,1.10
2022-08-01T04:19:57.710Z,1.00
2022-08-01T04:22:24.659Z,0.82
2022-08-01T04:24:57.108Z,0.73
2022-08-01T04:27:51.047Z,0.70
2022-08-01T04:30:22.214Z,0.75
2022-08-01T04:32:50.955Z,1.08
2022-08-01T04:35:23.480Z,1.60
2022-08-01T04:38:09.235Z,1.00
2022-08-01T04:40:37.182Z,1.35
2022-08-01T04:43:04.575Z,0.98
2022-08-01T04:45:33.819Z,1.10
2022-08-01T04:48:01.255Z,1.40
2022-08-01T04:50:28.841Z,1.40
2022-08-01T04:52:55.836Z,1.42
2022-08-01T04:55:22.757Z,1.30
2022-08-01T04:57:50.001Z,1.48
2022-08-01T05:00:17.607Z,2.00
2022-08-01T05:02:45.145Z,1.55
2022-08-01T05:05:13.684Z,1.50
2022-08-01T05:07:45.068Z,1.92
2022-08-01T05:10:12.664Z,1.77
2022-08-01T05:12:39.697Z,1.65
2022-08-01T05:15:11.702Z,1.70
2022-08-01T05:17:43.258Z,2.05
2022-08-01T05:20:11.537Z,1.50
2022-08-01T05:22:39.105Z,1.58
2022-08-01T05:25:06.818Z,2.13
2022-08-01T05:27:38.834Z,2.17
2022-08-01T05:30:09.514Z,2.45
2022-08-01T05:32:37.117Z,1.98
2022-08-01T05:35:04.643Z,1.63
2022-08-01T05:37:31.598Z,1.70
2022-08-01T05:39:58.574Z,2.30
2022-08-01T05:42:25.599Z,2.25
2022-08-01T05:44:52.570Z,1.90
2022-08-01T05:47:19.946Z,1.63
2022-08-01T05:49:47.313Z,1.70
2022-08-01T05:52:14.371Z,1.40
2022-08-01T05:54:41.574Z,1.20
2022-08-01T05:57:08.565Z,1.77
2022-08-01T05:59:35.492Z,1.40
2022-08-01T06:02:02.544Z,1.10
2022-08-01T06:04:29.565Z,0.90
2022-08-01T06:06:56.678Z,0.80
2022-08-01T06:09:23.614Z,0.98
2022-08-01T06:11:50.600Z,0.70
2022-08-01T06:14:17.570Z,0.50
2022-08-01T06:16:44.563Z,0.50
2022-08-01T06:19:11.540Z,0.50
2022-08-01T06:21:38.444Z,0.40
2022-08-01T06:24:05.741Z,0.50
2022-08-01T06:26:32.818Z,0.40
2022-08-01T06:28:59.746Z,0.30
2022-08-01T06:31:30.462Z,0.40
2022-08-01T06:34:00.224Z,0.20
2022-08-01T06:36:27.660Z,0.20
2022-08-01T06:38:54.609Z,0.20
2022-08-01T06:41:21.582Z,0.20
2022-08-01T06:43:48.633Z,0.32
2022-08-01T06:46:15.620Z,0.20
2022-08-01T06:48:43.564Z,0.20
2022-08-01T06:51:10.646Z,0.30
2022-08-01T06:53:38.786Z,0.30
2022-08-01T06:56:07.470Z,0.28
2022-08-01T06:58:35.640Z,0.20
2022-08-01T07:01:09.445Z,0.10
2022-08-01T07:03:53.554Z,0.20
2022-08-01T07:06:25.931Z,0.28
2022-08-01T07:08:56.628Z,0.20
2022-08-01T07:11:24.732Z,0.20
2022-08-01T07:13:51.661Z,0.20
2022-08-01T07:16:21.393Z,0.20
2022-08-01T07:18:48.483Z,0.20
2022-08-01T07:21:38.331Z,0.20
2022-08-01T07:24:02.373Z,0.20
2022-08-01T07:26:40.901Z,0.10
2022-08-01T07:29:19.710Z,0.30
2022-08-01T07:31:46.664Z,0.17
2022-08-01T07:34:13.619Z,0.10
2022-08-01T07:36:40.529Z,0.28
2022-08-01T07:39:07.470Z,0.20
2022-08-01T07:42:02.986Z,0.30
2022-08-01T07:44:21.554Z,0.20
2022-08-01T07:46:51.114Z,0.30
2022-08-01T07:49:18.112Z,0.30
2022-08-01T07:52:03.744Z,0.25
2022-08-01T07:54:35.365Z,0.20
2022-08-01T07:57:03.733Z,0.30
2022-08-01T07:59:32.637Z,0.32
2022-08-01T08:01:59.960Z,0.30
2022-08-01T08:04:28.195Z,0.30
2022-08-01T08:06:55.538Z,0.30
2022-08-01T08:09:22.510Z,0.30
2022-08-01T08:11:49.801Z,0.40
2022-08-01T08:14:18.749Z,0.25
2022-08-01T08:16:46.584Z,0.20
2022-08-01T08:19:16.361Z,0.30
2022-08-01T08:21:46.575Z,0.40
2022-08-01T08:24:26.220Z,0.47
2022-08-01T08:26:59.505Z,0.30
2022-08-01T08:29:28.211Z,0.20
2022-08-01T08:31:55.892Z,0.40
2022-08-01T08:34:25.399Z,0.20
2022-08-01T08:36:52.923Z,0.40
2022-08-01T08:39:20.715Z,0.30
2022-08-01T08:41:51.573Z,0.20
2022-08-01T08:44:21.090Z,0.50
2022-08-01T08:46:52.769Z,0.30
2022-08-01T08:49:23.048Z,0.30
2022-08-01T08:51:52.625Z,0.30
2022-08-01T08:54:31.319Z,0.30
2022-08-01T08:57:00.232Z,0.20
2022-08-01T08:59:27.788Z,0.40
2022-08-01T09:01:54.834Z,0.25
2022-08-01T09:04:26.130Z,0.30
2022-08-01T09:06:54.462Z,0.30
2022-08-01T09:09:21.503Z,0.20
2022-08-01T09:12:07.176Z,0.40
2022-08-01T09:14:36.405Z,0.20
2022-08-01T09:17:10.872Z,0.30
2022-08-01T09:19:43.995Z,0.30
2022-08-01T09:22:13.809Z,0.35
2022-08-01T09:24:42.121Z,0.30
2022-08-01T09:27:21.857Z,0.50
2022-08-01T09:30:01.464Z,0.40
2022-08-01T09:32:35.781Z,0.63
2022-08-01T09:35:24.437Z,0.60
2022-08-01T09:38:20.565Z,0.50
2022-08-01T09:41:01.447Z,0.57
2022-08-01T09:43:31.395Z,0.50
2022-08-01T09:45:59.834Z,0.65
2022-08-01T09:48:29.552Z,0.70
2022-08-01T09:51:01.033Z,0.73
2022-08-01T09:53:50.985Z,0.70
2022-08-01T09:56:21.420Z,0.40
2022-08-01T09:59:01.932Z,0.60
2022-08-01T10:01:43.468Z,0.57
2022-08-01T10:04:13.350Z,0.82
2022-08-01T10:06:46.914Z,0.70
2022-08-01T10:09:16.115Z,0.82
2022-08-01T10:11:44.633Z,0.80
2022-08-01T10:14:18.258Z,0.77
2022-08-01T10:16:46.811Z,0.80
2022-08-01T10:19:24.080Z,1.35
2022-08-01T10:21:58.951Z,0.90
2022-08-01T10:24:29.462Z,0.68
2022-08-01T10:27:05.990Z,0.60
2022-08-01T10:30:19.316Z,0.60
2022-08-01T10:32:55.000Z,1.00
2022-08-01T10:38:10.670Z,0.60
2022-08-01T10:40:42.518Z,0.80
2022-08-01T10:43:11.840Z,1.65
2022-08-01T10:45:39.373Z,0.60
2022-08-01T10:48:31.151Z,0.60
2022-08-01T10:51:01.402Z,0.90
2022-08-01T10:53:31.603Z,0.50
2022-08-01T10:56:13.156Z,0.60
2022-08-01T10:58:45.364Z,0.70
2022-08-01T11:01:29.894Z,0.80
2022-08-01T11:04:01.614Z,0.82
2022-08-01T11:06:35.024Z,0.90
2022-08-01T11:09:06.292Z,0.68
2022-08-01T11:11:56.572Z,0.68
2022-08-01T11:14:26.501Z,0.60
2022-08-01T11:16:57.853Z,0.80
2022-08-01T11:19:24.867Z,0.50
2022-08-01T11:22:01.571Z,0.47
2022-08-01T11:24:49.702Z,0.80
2022-08-01T11:27:33.704Z,0.60
2022-08-01T11:30:12.818Z,0.70
2022-08-01T11:33:11.420Z,0.85
2022-08-01T11:35:59.373Z,0.52
2022-08-01T11:38:31.175Z,0.77
2022-08-01T11:41:37.151Z,0.70
2022-08-01T11:44:09.857Z,0.55
2022-08-01T11:46:56.660Z,0.60
2022-08-01T11:49:35.230Z,0.68
2022-08-01T11:52:08.066Z,0.47
2022-08-01T11:54:38.356Z,0.50
2022-08-01T11:57:15.995Z,0.60
2022-08-01T12:00:02.833Z,0.40
2022-08-01T12:02:39.572Z,0.50
2022-08-01T12:05:08.396Z,0.65
2022-08-01T12:07:39.774Z,0.60
2022-08-01T12:10:12.980Z,0.82
2022-08-01T12:13:02.188Z,0.50
2022-08-01T12:15:37.755Z,0.50
2022-08-01T12:18:06.930Z,0.50
2022-08-01T12:20:42.771Z,0.38
2022-08-01T12:23:19.067Z,0.50
2022-08-01T12:25:52.473Z,0.50
2022-08-01T12:28:19.685Z,0.40
2022-08-01T12:30:49.507Z,0.60
2022-08-01T12:33:19.993Z,0.50
2022-08-01T12:35:47.776Z,0.40
2022-08-01T12:38:20.643Z,0.30
2022-08-01T12:40:49.763Z,0.40
2022-08-01T12:43:28.740Z,0.30
2022-08-01T12:46:00.063Z,0.40
2022-08-01T12:48:28.103Z,0.38
2022-08-01T12:50:58.541Z,0.50
2022-08-01T12:53:26.957Z,0.40
2022-08-01T12:56:06.624Z,0.30
2022-08-01T12:58:34.580Z,0.40
2022-08-01T13:01:10.064Z,0.40
2022-08-01T13:03:38.229Z,0.50
2022-08-01T13:06:17.561Z,0.45
2022-08-01T13:08:45.924Z,0.40
2022-08-01T13:11:18.247Z,0.30
2022-08-01T13:13:55.155Z,0.30
2022-08-01T13:16:30.962Z,0.30
2022-08-01T13:19:06.417Z,0.40
2022-08-01T13:21:53.010Z,0.47
2022-08-01T13:24:28.713Z,0.57
2022-08-01T13:27:01.692Z,0.50
2022-08-01T13:29:32.463Z,0.30
2022-08-01T13:32:00.765Z,0.68
2022-08-01T13:34:33.444Z,0.40
2022-08-01T13:37:02.538Z,0.45
2022-08-01T13:39:51.431Z,0.30
2022-08-01T13:42:19.357Z,0.60
2022-08-01T13:44:46.733Z,0.43
2022-08-01T13:47:15.719Z,0.68
2022-08-01T13:49:44.486Z,0.63
2022-08-01T13:52:11.511Z,0.50
2022-08-01T13:54:38.742Z,0.40
2022-08-01T13:57:05.754Z,0.30
2022-08-01T13:59:32.793Z,0.50
2022-08-01T14:01:59.712Z,0.40
2022-08-01T14:04:26.929Z,0.35
2022-08-01T14:06:54.283Z,0.47
2022-08-01T14:09:24.709Z,0.30
2022-08-01T14:11:52.075Z,0.50
2022-08-01T14:14:19.069Z,0.40
2022-08-01T14:16:46.521Z,0.20
2022-08-01T14:19:13.569Z,0.47
2022-08-01T14:21:40.536Z,0.30
2022-08-01T14:24:07.888Z,0.30
2022-08-01T14:26:34.905Z,0.40
2022-08-01T14:29:03.449Z,0.32
2022-08-01T14:31:34.026Z,0.30
2022-08-01T14:34:01.400Z,0.20
2022-08-01T14:36:31.539Z,0.30
2022-08-01T14:39:02.992Z,0.20
2022-08-01T14:41:31.474Z,0.30
2022-08-01T14:44:00.618Z,0.40
2022-08-01T14:46:28.309Z,0.20
2022-08-01T14:48:55.515Z,0.20
2022-08-01T14:51:22.456Z,0.30
2022-08-01T14:53:53.077Z,0.25
2022-08-01T14:56:20.561Z,0.23
2022-08-01T14:58:47.508Z,0.38
2022-08-01T15:01:21.598Z,0.20
2022-08-01T15:03:50.832Z,0.30
2022-08-01T15:06:19.090Z,0.20
2022-08-01T15:08:45.989Z,0.25
2022-08-01T15:11:12.994Z,0.20
2022-08-01T15:13:42.609Z,0.30
2022-08-01T15:16:10.162Z,0.30
2022-08-01T15:18:39.928Z,0.22
2022-08-01T15:21:07.075Z,0.30
2022-08-01T15:23:33.968Z,0.28
2022-08-01T15:26:01.232Z,0.20
2022-08-01T15:28:28.244Z,0.10
2022-08-01T15:30:55.132Z,0.20
2022-08-01T15:33:22.763Z,0.20
2022-08-01T15:35:49.757Z,0.28
2022-08-01T15:38:20.404Z,0.17
2022-08-01T15:40:48.517Z,0.25
2022-08-01T15:43:16.002Z,0.20
2022-08-01T15:45:47.813Z,0.25
2022-08-01T15:48:16.250Z,0.20
2022-08-01T15:50:43.310Z,0.32
2022-08-01T15:53:13.099Z,0.20
2022-08-01T15:55:40.112Z,0.30
2022-08-01T15:58:08.118Z,0.30
2022-08-01T16:00:39.086Z,0.17
2022-08-01T16:03:08.372Z,0.20
2022-08-01T16:05:41.084Z,0.17
2022-08-01T16:08:13.721Z,0.10
2022-08-01T16:10:40.860Z,0.33
2022-08-01T16:13:08.369Z,0.20
2022-08-01T16:15:39.254Z,0.20
2022-08-01T16:18:07.445Z,0.20
2022-08-01T16:20:34.600Z,0.20
2022-08-01T16:23:01.944Z,0.20
2022-08-01T16:25:28.897Z,0.10
2022-08-01T16:27:57.667Z,0.10
2022-08-01T16:30:27.078Z,0.15
2022-08-01T16:35:33.282Z,0.10
2022-08-01T16:38:07.109Z,0.20
2022-08-01T16:40:40.035Z,0.17
2022-08-01T16:43:18.955Z,0.20
2022-08-01T16:48:20.139Z,0.10
2022-08-01T16:50:49.466Z,0.28
2022-08-01T16:53:18.051Z,0.20
2022-08-01T16:55:50.519Z,0.17
2022-08-01T16:58:27.310Z,0.10
2022-08-01T17:00:56.733Z,0.10
2022-08-01T17:03:51.927Z,0.45
2022-08-01T17:06:13.199Z,0.30
2022-08-01T17:08:46.552Z,0.13
2022-08-01T17:11:14.900Z,0.20
2022-08-01T17:13:42.763Z,0.10
2022-08-01T17:16:10.634Z,0.20
2022-08-01T17:18:37.621Z,0.10
2022-08-01T17:21:04.534Z,0.20
2022-08-01T17:23:31.918Z,0.10
2022-08-01T17:25:59.615Z,0.20
2022-08-01T17:28:29.702Z,0.10
2022-08-01T17:30:56.738Z,0.20
2022-08-01T17:33:23.880Z,0.17
2022-08-01T17:36:10.832Z,0.20
2022-08-01T17:38:37.738Z,0.22
2022-08-01T17:41:04.646Z,0.10
2022-08-01T17:43:31.532Z,0.00
2022-08-01T17:45:58.420Z,0.20
2022-08-01T17:48:25.338Z,0.17
2022-08-01T17:50:52.222Z,0.10
2022-08-01T17:53:20.831Z,0.10
2022-08-01T17:55:55.606Z,0.15
2022-08-01T17:58:33.766Z,0.20
2022-08-01T18:01:16.207Z,0.20
2022-08-01T18:03:43.599Z,0.20
2022-08-01T18:06:13.764Z,0.10
2022-08-01T18:08:42.074Z,0.00
2022-08-01T18:11:09.797Z,0.10
2022-08-01T18:13:40.780Z,0.20
2022-08-01T18:16:11.026Z,0.10
2022-08-01T18:18:39.078Z,0.10
2022-08-01T18:21:06.916Z,0.00
2022-08-01T18:23:35.086Z,0.10
2022-08-01T18:26:02.836Z,0.10
2022-08-01T18:28:36.532Z,0.08
2022-08-01T18:31:06.356Z,0.10
2022-08-01T18:33:34.492Z,0.10
2022-08-01T18:36:04.190Z,0.10
2022-08-01T18:38:32.513Z,0.10
2022-08-01T18:41:00.906Z,0.15
2022-08-01T18:43:28.619Z,0.10
2022-08-01T18:45:58.350Z,0.40
2022-08-01T18:48:25.277Z,0.10
2022-08-01T18:50:54.012Z,0.00
2022-08-01T18:53:23.846Z,0.10
2022-08-01T18:55:50.980Z,0.10
2022-08-01T18:58:18.471Z,0.00
2022-08-01T19:00:45.404Z,0.03
2022-08-01T19:03:16.023Z,0.08
2022-08-01T19:05:43.735Z,0.10
2022-08-01T19:08:11.677Z,0.08
2022-08-01T19:10:42.389Z,0.00
2022-08-01T19:13:09.563Z,0.10
2022-08-01T19:15:36.628Z,0.00
2022-08-01T19:18:04.497Z,0.00
2022-08-01T19:20:31.821Z,0.00
2022-08-01T19:22:58.797Z,0.10
2022-08-01T19:25:26.266Z,0.00
2022-08-01T19:27:56.014Z,0.00
2022-08-01T19:30:24.242Z,0.10
2022-08-01T19:32:51.861Z,0.13
2022-08-01T19:35:18.815Z,0.10
2022-08-01T19:37:47.283Z,0.00
2022-08-01T19:40:27.753Z,0.10
2022-08-01T19:42:56.817Z,0.25
2022-08-01T19:45:24.846Z,0.10
2022-08-01T19:47:56.999Z,0.10
2022-08-01T19:50:26.814Z,0.10
2022-08-01T19:52:55.763Z,0.10
2022-08-01T19:55:24.684Z,0.00
2022-08-01T20:00:41.010Z,0.10
2022-08-01T20:03:10.079Z,0.10
2022-08-01T20:05:38.696Z,0.10
2022-08-01T20:08:09.124Z,0.20
2022-08-01T20:10:38.267Z,0.00
2022-08-01T20:13:06.620Z,0.10
2022-08-01T20:15:33.620Z,0.10
2022-08-01T20:18:00.960Z,0.10
2022-08-01T20:20:27.999Z,0.15
2022-08-01T20:22:57.364Z,0.00
2022-08-01T20:25:33.626Z,0.10
2022-08-01T20:28:10.474Z,0.05
2022-08-01T20:30:38.851Z,0.10
2022-08-01T20:33:10.567Z,0.10
2022-08-01T20:35:51.780Z,0.10
2022-08-01T20:38:27.766Z,0.10
2022-08-01T20:40:59.285Z,0.00
2022-08-01T20:43:27.648Z,0.10
2022-08-01T20:45:56.574Z,0.10
2022-08-01T20:48:26.704Z,0.13
2022-08-01T20:51:13.354Z,0.00
2022-08-01T20:53:42.076Z,0.10
2022-08-01T20:56:27.820Z,0.10
2022-08-01T20:59:03.483Z,0.10
2022-08-01T21:01:40.478Z,0.10
2022-08-01T21:04:31.407Z,0.15
2022-08-01T21:07:28.608Z,0.13
2022-08-01T21:10:15.401Z,0.20
2022-08-01T21:13:03.126Z,0.10
2022-08-01T21:15:31.572Z,0.00
2022-08-01T21:17:58.431Z,0.22
2022-08-01T21:20:28.608Z,0.10
2022-08-01T21:23:15.962Z,0.10
2022-08-01T21:25:44.063Z,0.08
2022-08-01T21:28:14.783Z,0.10
2022-08-01T21:30:42.855Z,0.08
2022-08-01T21:33:27.463Z,0.00
2022-08-01T21:35:56.592Z,0.20
2022-08-01T21:38:24.781Z,0.10
2022-08-01T21:40:53.037Z,0.10
2022-08-01T21:43:21.686Z,0.25
2022-08-01T21:45:57.913Z,0.10
2022-08-01T21:48:27.035Z,0.10
2022-08-01T21:51:07.370Z,0.10
2022-08-01T21:53:43.358Z,0.25
2022-08-01T21:56:27.105Z,0.10
2022-08-01T21:59:23.136Z,0.15
2022-08-01T22:01:57.483Z,0.10
2022-08-01T22:04:49.127Z,0.20
2022-08-01T22:07:22.347Z,0.30
2022-08-01T22:09:50.128Z,0.63
2022-08-01T22:12:18.928Z,2.40
2022-08-01T22:14:49.964Z,1.20
2022-08-01T22:17:22.710Z,0.50
2022-08-01T22:19:53.921Z,0.50
2022-08-01T22:22:42.499Z,0.35
2022-08-01T22:25:13.042Z,0.30
2022-08-01T22:28:06.006Z,0.40
2022-08-01T22:30:29.406Z,0.50
2022-08-01T22:33:07.826Z,0.20
2022-08-01T22:35:50.744Z,0.30
2022-08-01T22:38:19.581Z,3.40
2022-08-01T22:40:56.953Z,1.92
2022-08-01T22:43:30.522Z,1.30
2022-08-01T22:46:13.021Z,0.70
2022-08-01T22:48:59.036Z,0.90
2022-08-01T22:51:42.131Z,8.55
2022-08-01T22:54:13.434Z,17.52
2022-08-01T22:56:53.301Z,7.03
2022-08-01T22:59:26.878Z,3.70
2022-08-01T23:02:14.766Z,3.30
2022-08-01T23:04:49.900Z,3.70
2022-08-01T23:07:23.482Z,4.10
2022-08-01T23:09:55.374Z,3.70
2022-08-01T23:12:27.509Z,3.28
2022-08-01T23:14:59.754Z,2.03
2022-08-01T23:17:31.367Z,1.83
2022-08-01T23:20:00.704Z,7.00
2022-08-01T23:22:32.809Z,2.60
2022-08-01T23:25:05.067Z,6.15
2022-08-01T23:28:03.285Z,9.85
2022-08-01T23:30:27.998Z,7.13
2022-08-01T23:32:55.589Z,6.22
2022-08-01T23:35:22.763Z,4.85
2022-08-01T23:37:51.181Z,3.20
2022-08-01T23:40:19.115Z,2.22
2022-08-01T23:42:46.089Z,2.00
2022-08-01T23:45:12.982Z,1.30
2022-08-01T23:47:39.911Z,0.90
2022-08-01T23:50:07.856Z,1.15
2022-08-01T23:52:35.841Z,0.80
2022-08-01T23:55:14.910Z,0.77
2022-08-01T23:57:45.347Z,1.13
